Glenburn, ND

12:15 AM CST on February 01, 2015 (GMT -0600)
APRSWXNET Glenburn ND US | Change Station
CLOSE
Current Station
Personal Weather Station
Location: Glenburn, ND
Elevation: 1574 ft
Nearby Weather Stations

Elev 1574 ft 48.45 °N, 101.22 °W | Updated 27 minutes ago

Mostly Cloudy
Mostly Cloudy
-8 °F
Feels Like -23 °F
N
7
Wind Variable Wind from NNE
Gusts 0.0 mph

Today
High -- | Low -- °F
--% Chance of Precip.
Yesterday
High -- | Low -- °F
Precip. -- in
8:14 AM 5:43 PM
Waxing Gibbous, 93% visible
Pressure 30.67 in
Visibility 10.0 miles
Clouds Clear
Windchill -23 °F
Dew Point -14 °F
Humidity 76%
Rainfall -999.00 in
Snow Depth Not available.
UV 0 out of 12
Pollen .10 out of 12
Air Quality Not available.
Flu Activity Not available.
METAR KMIB 010558Z AUTO 02009KT 10SM CLR M22/M26 A3050 RMK AO2 SLP385 T12241263 11195 21224 410671224 52008 $

More Conditions Fewer Conditions

Pressure 30.67 in
Visibility 10.0 miles
Clouds Clear
Windchill -23 °F
Dew Point -14 °F
Humidity 76%
Rainfall -999.00 in
Snow Depth Not available.
UV 0 out of 12
Pollen .10 out of 12
Air Quality Not available.
Flu Activity Not available.
METAR KMIB 010558Z AUTO 02009KT 10SM CLR M22/M26 A3050 RMK AO2 SLP385 T12241263 11195 21224 410671224 52008 $

More Conditions Fewer Conditions

10-Day Weather Forecast

Almanac

Astronomy

Feb. 01, 2015 Rise Set
Actual Time
Civil Twilight
Nautical Twilight
Astronomical Twilight
Moon
Length of Visible Light
Length of Day
Tomorrow will be .
, % of the Moon is Illuminated

Today's Extremes

State Highs State Lows

Community

WunderPhotos

Upload Photos

1,792,322 photos uploaded!

WunderBlogs® & News

Nearby

Air Quality

  Air Quality AQ Index Pollutant
Not available.

Snow Depth

Station Depth Elevation

Earthquake Activity

City Distance Mag. Time & Date
Minimum magnitude displayed is 2.5.

Coastal Water Temperatures

Place Temperature

Nearby Weather Stations